createdAt,value
2019-03-23T00:01:56.669Z,38.17
2019-03-23T00:04:26.838Z,40.00
2019-03-23T00:06:57.143Z,37.60
2019-03-23T00:09:27.473Z,41.97
2019-03-23T00:11:57.841Z,40.07
2019-03-23T00:14:28.045Z,39.67
2019-03-23T00:16:58.419Z,41.13
2019-03-23T00:19:28.786Z,43.97
2019-03-23T00:21:59.202Z,42.60
2019-03-23T00:24:29.442Z,41.27
2019-03-23T00:26:59.832Z,38.37
2019-03-23T00:29:30.105Z,43.33
2019-03-23T00:32:00.438Z,37.17
2019-03-23T00:34:31.049Z,43.27
2019-03-23T00:37:01.255Z,43.47
2019-03-23T00:39:31.547Z,41.87
2019-03-23T00:42:02.017Z,42.80
2019-03-23T00:44:32.309Z,42.87
2019-03-23T00:47:02.541Z,45.00
2019-03-23T00:49:32.886Z,46.33
2019-03-23T00:52:03.255Z,45.43
2019-03-23T00:54:33.581Z,43.57
2019-03-23T00:57:03.901Z,43.00
2019-03-23T00:59:34.261Z,39.17
2019-03-23T01:02:04.509Z,37.13
2019-03-23T01:04:34.723Z,40.63
2019-03-23T01:07:05.273Z,42.70
2019-03-23T01:09:35.613Z,43.33
2019-03-23T01:12:05.959Z,43.60
2019-03-23T01:14:36.179Z,43.77
2019-03-23T01:17:06.511Z,40.50
2019-03-23T01:19:36.837Z,38.70
2019-03-23T01:22:07.085Z,38.13
2019-03-23T01:24:37.283Z,32.47
2019-03-23T01:27:07.469Z,30.17
2019-03-23T01:29:37.811Z,28.03
2019-03-23T01:32:08.130Z,31.97
2019-03-23T01:34:38.392Z,29.00
2019-03-23T01:37:08.701Z,30.30
2019-03-23T01:39:38.923Z,27.50
2019-03-23T01:42:09.179Z,26.90
2019-03-23T01:44:39.560Z,28.90
2019-03-23T01:47:12.254Z,22.70
2019-03-23T01:49:42.529Z,27.43
2019-03-23T01:52:12.890Z,28.20
2019-03-23T01:54:43.269Z,24.63
2019-03-23T01:57:13.566Z,24.63
2019-03-23T01:59:43.934Z,23.13
2019-03-23T02:02:14.272Z,21.93
2019-03-23T02:04:44.542Z,23.73
2019-03-23T02:07:14.882Z,22.70
2019-03-23T02:09:45.190Z,25.23
2019-03-23T02:12:15.489Z,21.80
2019-03-23T02:14:45.806Z,19.57
2019-03-23T02:17:16.085Z,21.77
2019-03-23T02:19:46.310Z,20.33
2019-03-23T02:22:16.697Z,18.80
2019-03-23T02:24:46.905Z,23.30
2019-03-23T02:27:17.571Z,21.17
2019-03-23T02:29:47.913Z,20.63
2019-03-23T02:32:18.237Z,21.40
2019-03-23T02:34:48.573Z,22.07
2019-03-23T02:37:27.599Z,22.97
2019-03-23T02:39:50.736Z,20.07
2019-03-23T02:42:21.067Z,21.90
2019-03-23T02:44:51.377Z,20.20
2019-03-23T02:47:21.635Z,18.20
2019-03-23T02:49:51.952Z,23.97
2019-03-23T02:52:22.341Z,22.27
2019-03-23T02:54:52.659Z,20.50
2019-03-23T02:57:22.975Z,18.63
2019-03-23T02:59:53.338Z,23.67
2019-03-23T03:02:24.301Z,21.83
2019-03-23T03:04:54.510Z,20.37
2019-03-23T03:07:24.781Z,21.83
2019-03-23T03:09:55.043Z,19.73
2019-03-23T03:12:25.290Z,20.70
2019-03-23T03:14:55.578Z,20.70
2019-03-23T03:17:26.198Z,22.67
2019-03-23T03:19:56.461Z,21.80
2019-03-23T03:22:26.807Z,26.30
2019-03-23T03:24:57.215Z,18.60
2019-03-23T03:27:27.394Z,21.00
2019-03-23T03:29:57.774Z,18.83
2019-03-23T03:32:28.019Z,20.73
2019-03-23T03:34:58.305Z,20.60
2019-03-23T03:37:28.609Z,22.97
2019-03-23T03:39:58.852Z,20.30
2019-03-23T03:42:29.664Z,21.90
2019-03-23T03:45:00.023Z,18.90
2019-03-23T03:47:30.274Z,24.93
2019-03-23T03:50:00.551Z,22.47
2019-03-23T03:52:30.763Z,18.70
2019-03-23T03:55:01.130Z,20.03
2019-03-23T03:57:31.374Z,17.77
2019-03-23T04:00:01.768Z,20.83
2019-03-23T04:02:32.013Z,19.87
2019-03-23T04:05:02.298Z,22.53
2019-03-23T04:07:32.583Z,22.97
2019-03-23T04:10:02.878Z,22.93
2019-03-23T04:12:34.918Z,22.63
2019-03-23T04:15:05.766Z,23.77
2019-03-23T04:17:36.071Z,21.50
2019-03-23T04:20:06.865Z,24.60
2019-03-23T04:22:37.204Z,22.93
2019-03-23T04:25:07.972Z,22.87
2019-03-23T04:27:38.292Z,24.03
2019-03-23T04:30:08.742Z,21.43
2019-03-23T04:32:38.957Z,24.50
2019-03-23T04:35:09.359Z,25.00
2019-03-23T04:37:39.568Z,22.67
2019-03-23T04:40:11.078Z,22.83
2019-03-23T04:42:41.341Z,22.97
2019-03-23T04:45:11.793Z,23.47
2019-03-23T04:47:42.015Z,25.03
2019-03-23T04:50:14.784Z,22.73
2019-03-23T04:52:45.129Z,25.57
2019-03-23T04:55:15.439Z,23.23
2019-03-23T04:57:45.781Z,21.97
2019-03-23T05:00:16.912Z,23.87
2019-03-23T05:02:47.244Z,24.40
2019-03-23T05:05:17.531Z,22.83
2019-03-23T05:07:47.864Z,22.50
2019-03-23T05:10:18.097Z,25.13
2019-03-23T05:12:48.429Z,24.40
2019-03-23T05:15:18.754Z,27.00
2019-03-23T05:17:48.971Z,26.00
2019-03-23T05:20:30.493Z,23.87
2019-03-23T05:23:01.031Z,25.80
2019-03-23T05:25:31.785Z,27.07
2019-03-23T05:28:02.085Z,26.23
2019-03-23T05:30:32.439Z,25.23
2019-03-23T05:33:02.762Z,24.10
2019-03-23T05:35:33.093Z,24.47
2019-03-23T05:38:03.409Z,24.40
2019-03-23T05:40:33.728Z,30.10
2019-03-23T05:43:04.473Z,28.60
2019-03-23T05:45:34.863Z,26.50
2019-03-23T05:48:05.205Z,34.00
2019-03-23T05:50:35.505Z,28.13
2019-03-23T05:53:05.804Z,33.73
2019-03-23T05:55:36.005Z,32.10
2019-03-23T05:58:06.341Z,32.27
2019-03-23T06:00:36.628Z,36.50
2019-03-23T06:03:06.873Z,31.73
2019-03-23T06:05:37.232Z,33.13
2019-03-23T06:08:07.522Z,33.80
2019-03-23T06:10:37.844Z,33.27
2019-03-23T06:13:08.273Z,30.87
2019-03-23T06:15:38.600Z,30.40
2019-03-23T06:18:08.878Z,25.80
2019-03-23T06:20:39.065Z,27.83
2019-03-23T06:23:09.341Z,28.97
2019-03-23T06:25:39.610Z,36.83
2019-03-23T06:28:10.007Z,39.10
2019-03-23T06:30:40.426Z,33.37
2019-03-23T06:33:10.759Z,32.87
2019-03-23T06:35:41.042Z,38.93
2019-03-23T06:38:11.691Z,33.50
2019-03-23T06:40:41.998Z,35.17
2019-03-23T06:43:12.310Z,34.40
2019-03-23T06:45:42.617Z,41.97
2019-03-23T06:48:12.979Z,41.87
2019-03-23T06:50:43.322Z,43.10
2019-03-23T06:53:13.682Z,41.57
2019-03-23T06:55:44.038Z,38.03
2019-03-23T06:58:14.383Z,40.50
2019-03-23T07:00:44.658Z,48.27
2019-03-23T07:03:15.009Z,45.17
2019-03-23T07:05:45.290Z,47.67
2019-03-23T07:08:15.665Z,50.87
2019-03-23T07:10:45.890Z,44.93
2019-03-23T07:13:16.296Z,47.83
2019-03-23T07:15:46.638Z,45.23
2019-03-23T07:18:16.989Z,50.43
2019-03-23T07:20:47.205Z,49.47
2019-03-23T07:23:17.454Z,51.37
2019-03-23T07:25:47.701Z,49.60
2019-03-23T07:28:18.046Z,46.80
2019-03-23T07:30:48.346Z,50.03
2019-03-23T07:33:20.909Z,51.10
2019-03-23T07:35:51.453Z,57.90
2019-03-23T07:38:21.794Z,55.43
2019-03-23T07:40:52.019Z,54.00
2019-03-23T07:43:22.231Z,57.50
2019-03-23T07:45:52.578Z,53.17
2019-03-23T07:48:22.949Z,59.93
2019-03-23T07:50:53.238Z,57.90
2019-03-23T07:53:23.567Z,62.23
2019-03-23T07:55:53.930Z,61.37
2019-03-23T07:58:24.226Z,66.70
2019-03-23T08:00:54.537Z,64.37
2019-03-23T08:03:24.806Z,61.47
2019-03-23T08:05:55.201Z,65.77
2019-03-23T08:08:27.769Z,61.40
2019-03-23T08:10:58.166Z,67.97
2019-03-23T08:13:28.555Z,68.77
2019-03-23T08:15:58.918Z,64.03
2019-03-23T08:18:29.220Z,69.57
2019-03-23T08:20:59.622Z,76.00
2019-03-23T08:23:29.829Z,69.37
2019-03-23T08:26:00.033Z,65.37
2019-03-23T08:28:32.383Z,67.57
2019-03-23T08:31:02.285Z,74.40
2019-03-23T08:33:32.655Z,66.07
2019-03-23T08:36:02.833Z,71.30
2019-03-23T08:38:33.185Z,72.63
2019-03-23T08:41:03.585Z,64.87
2019-03-23T08:43:33.949Z,73.10
2019-03-23T08:46:04.290Z,63.17
2019-03-23T08:48:34.554Z,71.03
2019-03-23T08:51:04.751Z,64.17
2019-03-23T08:53:34.897Z,65.93
2019-03-23T08:56:05.133Z,61.80
2019-03-23T08:58:33.062Z,64.60
2019-03-23T09:01:03.462Z,58.23
2019-03-23T09:03:33.843Z,57.90
2019-03-23T09:06:04.234Z,58.38
2019-03-23T09:08:34.533Z,68.30
2019-03-23T09:11:04.734Z,55.40
2019-03-23T09:13:40.678Z,55.78
2019-03-23T09:16:07.006Z,58.52
2019-03-23T09:18:37.301Z,61.08
2019-03-23T09:21:07.567Z,52.43
2019-03-23T09:23:37.798Z,57.00
2019-03-23T09:26:08.013Z,51.55
2019-03-23T09:28:38.237Z,58.13
2019-03-23T09:31:08.393Z,50.28
2019-03-23T09:33:38.759Z,56.65
2019-03-23T09:36:09.014Z,57.73
2019-03-23T09:38:39.301Z,57.65
2019-03-23T09:41:09.641Z,54.23
2019-03-23T09:43:39.850Z,53.87
2019-03-23T09:46:10.165Z,51.90
2019-03-23T09:48:40.529Z,54.00
2019-03-23T09:51:10.825Z,54.15
2019-03-23T09:53:41.131Z,52.33
2019-03-23T09:56:11.402Z,53.42
2019-03-23T09:58:41.789Z,49.05
2019-03-23T10:01:12.171Z,50.78
2019-03-23T10:03:42.974Z,47.55
2019-03-23T10:06:13.602Z,52.33
2019-03-23T10:08:46.250Z,46.65
2019-03-23T10:11:15.881Z,49.73
2019-03-23T10:13:46.168Z,47.73
2019-03-23T10:16:16.483Z,42.98
2019-03-23T10:18:46.694Z,45.43
2019-03-23T10:21:16.910Z,49.42
2019-03-23T10:23:47.166Z,48.00
2019-03-23T10:26:17.514Z,49.70
2019-03-23T10:28:47.711Z,46.40
2019-03-23T10:31:17.902Z,45.58
2019-03-23T10:33:48.082Z,39.13
2019-03-23T10:36:18.430Z,38.13
2019-03-23T10:38:48.645Z,43.45
2019-03-23T10:41:18.885Z,37.00
2019-03-23T10:43:49.196Z,42.67
2019-03-23T10:46:19.830Z,44.50
2019-03-23T10:48:50.105Z,46.55
2019-03-23T10:51:20.355Z,41.37
2019-03-23T10:53:50.857Z,41.42
2019-03-23T10:56:21.110Z,43.55
2019-03-23T10:58:51.326Z,44.35
2019-03-23T11:01:21.574Z,40.95
2019-03-23T11:03:51.914Z,41.80
2019-03-23T11:06:22.209Z,42.80
2019-03-23T11:08:52.561Z,40.75
2019-03-23T11:11:22.850Z,38.08
2019-03-23T11:13:53.058Z,43.92
2019-03-23T11:16:23.293Z,44.90
2019-03-23T11:18:54.490Z,39.42
2019-03-23T11:21:25.108Z,40.60
2019-03-23T11:23:55.381Z,39.75
2019-03-23T11:26:25.728Z,38.20
2019-03-23T11:28:56.907Z,36.40
2019-03-23T11:31:27.205Z,36.60
2019-03-23T11:33:57.557Z,42.17
2019-03-23T11:36:27.725Z,36.60
2019-03-23T11:38:57.923Z,37.00
2019-03-23T11:41:28.111Z,38.10
2019-03-23T11:43:58.453Z,31.35
2019-03-23T11:46:28.674Z,34.58
2019-03-23T11:48:59.275Z,32.28
2019-03-23T11:51:29.549Z,34.08
2019-03-23T11:53:59.753Z,33.50
2019-03-23T11:56:30.425Z,29.60
2019-03-23T11:59:01.485Z,31.30
2019-03-23T12:01:31.825Z,28.50
2019-03-23T12:04:02.090Z,30.37
2019-03-23T12:06:32.795Z,31.85
2019-03-23T12:09:04.712Z,39.70
2019-03-23T12:11:35.078Z,36.42
2019-03-23T12:14:05.521Z,31.57
2019-03-23T12:16:36.090Z,31.97
2019-03-23T12:19:06.401Z,34.67
2019-03-23T12:21:36.743Z,32.93
2019-03-23T12:24:08.946Z,29.32
2019-03-23T12:26:39.198Z,30.55
2019-03-23T12:29:09.398Z,35.90
2019-03-23T12:31:39.741Z,29.05
2019-03-23T12:34:09.981Z,27.17
2019-03-23T12:36:40.165Z,29.15
2019-03-23T12:39:10.375Z,31.95
2019-03-23T12:41:41.085Z,27.90
2019-03-23T12:44:11.289Z,28.05
2019-03-23T12:46:48.153Z,28.70
2019-03-23T12:49:13.306Z,26.25
2019-03-23T12:51:43.681Z,30.15
2019-03-23T12:54:14.013Z,30.48
2019-03-23T12:56:44.249Z,26.70
2019-03-23T12:59:14.585Z,23.65
2019-03-23T13:01:46.386Z,28.85
2019-03-23T13:04:16.733Z,26.60
2019-03-23T13:06:47.045Z,25.65
2019-03-23T13:09:17.271Z,23.27
2019-03-23T13:11:47.476Z,25.55
2019-03-23T13:14:17.713Z,29.30
2019-03-23T13:16:47.992Z,27.80
2019-03-23T13:19:18.597Z,26.35
2019-03-23T13:21:48.847Z,24.12
2019-03-23T13:24:19.135Z,28.70
2019-03-23T13:26:49.324Z,27.27
2019-03-23T13:29:19.603Z,29.57
2019-03-23T13:31:49.817Z,29.27
2019-03-23T13:34:20.082Z,27.20
2019-03-23T13:36:50.385Z,25.43
2019-03-23T13:39:20.586Z,30.37
2019-03-23T13:41:51.546Z,23.07
2019-03-23T13:44:21.903Z,24.20
2019-03-23T13:46:52.597Z,28.52
2019-03-23T13:49:22.848Z,26.35
2019-03-23T13:51:53.075Z,31.33
2019-03-23T13:54:23.233Z,27.07
2019-03-23T13:56:53.573Z,29.55
2019-03-23T13:59:23.857Z,29.25
2019-03-23T14:01:54.241Z,26.10
2019-03-23T14:04:24.598Z,28.47
2019-03-23T14:06:54.959Z,25.68
2019-03-23T14:09:25.194Z,30.12
2019-03-23T14:11:55.542Z,29.15
2019-03-23T14:14:25.779Z,28.38
2019-03-23T14:16:56.081Z,33.00
2019-03-23T14:19:26.438Z,29.52
2019-03-23T14:21:56.765Z,29.72
2019-03-23T14:24:27.065Z,33.20
2019-03-23T14:26:57.386Z,28.05
2019-03-23T14:29:27.681Z,32.73
2019-03-23T14:31:57.845Z,31.57
2019-03-23T14:34:28.127Z,31.70
2019-03-23T14:36:58.374Z,27.22
2019-03-23T14:39:28.661Z,28.35
2019-03-23T14:42:04.749Z,29.18
2019-03-23T14:44:31.225Z,28.30
2019-03-23T14:47:01.461Z,28.50
2019-03-23T14:49:32.826Z,30.55
2019-03-23T14:52:03.202Z,29.37
2019-03-23T14:54:33.588Z,33.45
2019-03-23T14:57:03.834Z,30.72
2019-03-23T14:59:33.985Z,30.32
2019-03-23T15:02:04.246Z,32.33
2019-03-23T15:04:34.517Z,30.15
2019-03-23T15:07:04.865Z,27.02
2019-03-23T15:09:35.154Z,28.85
2019-03-23T15:12:14.555Z,29.37
2019-03-23T15:14:37.337Z,31.90
2019-03-23T15:17:07.672Z,31.33
2019-03-23T15:19:37.926Z,32.10
2019-03-23T15:22:08.233Z,36.75
2019-03-23T15:24:38.510Z,36.35
2019-03-23T15:27:11.245Z,37.85
2019-03-23T15:29:41.596Z,36.10
2019-03-23T15:32:11.785Z,33.30
2019-03-23T15:34:42.096Z,29.55
2019-03-23T15:37:12.306Z,31.65
2019-03-23T15:39:42.522Z,38.73
2019-03-23T15:42:12.755Z,34.05
2019-03-23T15:44:42.996Z,37.93
2019-03-23T15:47:13.209Z,40.55
2019-03-23T15:49:43.534Z,34.78
2019-03-23T15:52:13.820Z,34.98
2019-03-23T15:54:44.114Z,41.92
2019-03-23T15:57:14.449Z,34.80
2019-03-23T15:59:44.737Z,39.45
2019-03-23T16:02:16.242Z,37.90
2019-03-23T16:04:46.506Z,42.45
2019-03-23T16:07:16.807Z,36.70
2019-03-23T16:09:47.186Z,37.88
2019-03-23T16:12:17.533Z,39.35
2019-03-23T16:14:47.957Z,37.20
2019-03-23T16:17:18.201Z,35.28
2019-03-23T16:19:48.547Z,37.70
2019-03-23T16:22:18.862Z,34.43
2019-03-23T16:24:49.313Z,39.13
2019-03-23T16:27:19.624Z,35.23
2019-03-23T16:29:49.846Z,36.90
2019-03-23T16:32:20.185Z,32.00
2019-03-23T16:34:50.413Z,36.00
2019-03-23T16:37:20.732Z,35.85
2019-03-23T16:39:52.053Z,39.38
2019-03-23T16:42:22.466Z,41.55
2019-03-23T16:44:52.703Z,38.60
2019-03-23T16:47:22.999Z,37.05
2019-03-23T16:49:53.247Z,41.58
2019-03-23T16:52:23.496Z,37.58
2019-03-23T16:54:53.785Z,34.88
2019-03-23T16:57:24.097Z,36.42
2019-03-23T16:59:54.438Z,37.42
2019-03-23T17:02:24.834Z,31.85
2019-03-23T17:04:55.145Z,32.85
2019-03-23T17:07:25.437Z,38.48
2019-03-23T17:09:55.807Z,32.45
2019-03-23T17:12:26.134Z,38.28
2019-03-23T17:14:56.565Z,33.65
2019-03-23T17:17:26.929Z,35.03
2019-03-23T17:19:57.260Z,35.93
2019-03-23T17:22:27.443Z,38.48
2019-03-23T17:24:57.714Z,36.38
2019-03-23T17:27:28.050Z,39.15
2019-03-23T17:29:58.418Z,35.48
2019-03-23T17:32:28.785Z,32.40
2019-03-23T17:34:59.020Z,34.10
2019-03-23T17:37:29.228Z,35.23
2019-03-23T17:39:59.492Z,36.35
2019-03-23T17:42:29.873Z,32.38
2019-03-23T17:45:00.326Z,36.58
2019-03-23T17:47:30.555Z,38.00
2019-03-23T17:50:00.787Z,35.40
2019-03-23T17:52:31.317Z,39.00
2019-03-23T17:55:01.584Z,38.13
2019-03-23T17:57:31.885Z,39.03
2019-03-23T18:00:02.162Z,36.23
2019-03-23T18:02:32.497Z,34.15
2019-03-23T18:05:02.654Z,35.00
2019-03-23T18:07:33.031Z,35.60
2019-03-23T18:10:04.222Z,36.90
2019-03-23T18:12:34.526Z,35.23
2019-03-23T18:15:04.917Z,37.43
2019-03-23T18:17:35.407Z,37.45
2019-03-23T18:20:06.224Z,37.98
2019-03-23T18:22:36.583Z,37.27
2019-03-23T18:25:07.860Z,36.20
2019-03-23T18:27:40.198Z,41.13
2019-03-23T18:30:41.606Z,40.83
2019-03-23T18:33:12.173Z,43.97
2019-03-23T18:35:42.651Z,46.10
2019-03-23T18:38:12.961Z,39.70
2019-03-23T18:40:43.301Z,48.23
2019-03-23T18:43:13.591Z,53.10
2019-03-23T18:45:43.837Z,48.57
2019-03-23T18:48:14.101Z,46.63
2019-03-23T18:50:44.321Z,42.47
2019-03-23T18:53:14.725Z,44.58
2019-03-23T18:55:44.962Z,47.27
2019-03-23T18:58:15.394Z,43.97
2019-03-23T19:00:45.769Z,42.37
2019-03-23T19:03:16.125Z,45.80
2019-03-23T19:05:47.722Z,47.77
2019-03-23T19:08:17.990Z,53.47
2019-03-23T19:10:48.174Z,55.30
2019-03-23T19:13:18.462Z,61.93
2019-03-23T19:15:48.759Z,61.30
2019-03-23T19:18:19.124Z,51.53
2019-03-23T19:20:49.378Z,61.77
2019-03-23T19:23:19.737Z,57.90
2019-03-23T19:25:50.101Z,49.20
2019-03-23T19:28:20.446Z,56.27
2019-03-23T19:30:50.767Z,49.13
2019-03-23T19:33:21.113Z,50.80
2019-03-23T19:35:51.387Z,48.47
2019-03-23T19:38:21.590Z,46.00
2019-03-23T19:40:51.915Z,47.03
2019-03-23T19:43:22.610Z,56.67
2019-03-23T19:45:52.882Z,53.47
2019-03-23T19:48:23.257Z,45.40
2019-03-23T19:50:53.599Z,48.47
2019-03-23T19:53:23.949Z,47.53
2019-03-23T19:55:54.264Z,50.43
2019-03-23T19:58:24.616Z,48.27
2019-03-23T20:00:54.914Z,49.83
2019-03-23T20:03:25.294Z,46.07
2019-03-23T20:05:57.118Z,46.93
2019-03-23T20:08:27.522Z,50.17
2019-03-23T20:10:57.780Z,46.93
2019-03-23T20:13:27.987Z,45.47
2019-03-23T20:15:58.322Z,46.93
2019-03-23T20:18:28.710Z,43.00
2019-03-23T20:20:59.102Z,45.93
2019-03-23T20:23:29.371Z,52.83
2019-03-23T20:25:59.672Z,42.50
2019-03-23T20:28:29.929Z,47.40
2019-03-23T20:31:00.263Z,44.53
2019-03-23T20:33:30.497Z,51.37
2019-03-23T20:36:01.139Z,48.43
2019-03-23T20:38:33.278Z,44.23
2019-03-23T20:41:03.615Z,47.00
2019-03-23T20:43:33.975Z,46.00
2019-03-23T20:46:04.203Z,45.83
2019-03-23T20:48:36.514Z,48.77
2019-03-23T20:51:06.966Z,49.23
2019-03-23T20:53:37.295Z,41.03
2019-03-23T20:56:07.642Z,44.93
2019-03-23T20:58:37.901Z,45.63
2019-03-23T21:01:08.133Z,48.37
2019-03-23T21:03:38.354Z,44.77
2019-03-23T21:06:08.694Z,44.63
2019-03-23T21:08:39.068Z,42.57
2019-03-23T21:11:09.378Z,45.83
2019-03-23T21:13:39.655Z,35.70
2019-03-23T21:16:09.859Z,40.57
2019-03-23T21:18:42.393Z,36.63
2019-03-23T21:21:12.685Z,39.23
2019-03-23T21:23:43.010Z,37.47
2019-03-23T21:26:14.537Z,34.03
2019-03-23T21:28:44.950Z,36.63
2019-03-23T21:31:15.276Z,35.57
2019-03-23T21:33:45.627Z,35.50
2019-03-23T21:36:17.403Z,37.17
2019-03-23T21:38:47.718Z,34.10
2019-03-23T21:41:17.990Z,36.67
2019-03-23T21:43:48.320Z,34.53
2019-03-23T21:46:18.570Z,35.60
2019-03-23T21:48:51.510Z,32.03
2019-03-23T21:51:22.991Z,35.00
2019-03-23T21:53:53.405Z,38.67
2019-03-23T21:56:23.778Z,33.70
2019-03-23T21:58:54.098Z,35.90
2019-03-23T22:01:24.477Z,39.30
2019-03-23T22:03:54.734Z,41.93
2019-03-23T22:06:25.427Z,33.57
2019-03-23T22:08:55.973Z,32.80
2019-03-23T22:11:26.299Z,36.73
2019-03-23T22:13:56.589Z,35.57
2019-03-23T22:16:27.646Z,41.00
2019-03-23T22:18:59.899Z,35.37
2019-03-23T22:21:31.537Z,32.17
2019-03-23T22:24:02.176Z,32.67
2019-03-23T22:26:32.469Z,28.47
2019-03-23T22:29:02.678Z,31.83
2019-03-23T22:31:33.298Z,32.13
2019-03-23T22:34:03.662Z,33.20
2019-03-23T22:36:35.649Z,34.10
2019-03-23T22:39:07.543Z,32.27
2019-03-23T22:41:37.910Z,33.07
2019-03-23T22:44:08.238Z,35.27
2019-03-23T22:46:38.476Z,39.23
2019-03-23T22:49:08.774Z,35.50
2019-03-23T22:51:39.101Z,38.50
2019-03-23T22:54:09.511Z,36.93
2019-03-23T22:56:39.878Z,33.63
2019-03-23T22:59:10.118Z,38.33
2019-03-23T23:01:41.727Z,32.33
2019-03-23T23:04:12.310Z,31.47
2019-03-23T23:06:43.590Z,32.47
2019-03-23T23:09:13.961Z,31.60
2019-03-23T23:11:44.330Z,29.33
2019-03-23T23:14:15.469Z,35.23
2019-03-23T23:16:47.319Z,34.83
2019-03-23T23:19:17.716Z,36.30
2019-03-23T23:21:47.952Z,32.23
2019-03-23T23:24:18.245Z,30.87
2019-03-23T23:26:48.474Z,33.10
2019-03-23T23:29:18.844Z,28.90
2019-03-23T23:31:50.550Z,26.33
2019-03-23T23:34:24.507Z,23.83
2019-03-23T23:36:54.874Z,28.53
2019-03-23T23:39:29.282Z,27.97
2019-03-23T23:41:59.661Z,25.80
2019-03-23T23:44:29.962Z,27.37
2019-03-23T23:47:00.323Z,28.80
2019-03-23T23:49:30.706Z,26.07
2019-03-23T23:52:01.033Z,31.30
2019-03-23T23:54:32.816Z,24.90
2019-03-23T23:57:03.081Z,24.60
2019-03-23T23:59:33.333Z,24.27
